Bruning, Nebraska
Current Conditions -  °F | °C
As of 2:35 AM on Sunday 26 Oct 2014 (Local Time) from KHJH Reporting Station
Clear Clear  
Wind Chill: 57°   Ceiling: Unl
Heat Index: 57°   Visibility: 10mi
Dew Point: 46°   Wind: 6mph
Humidity: 69%   Direction: 120°ESE
Pressure: 29.89"   Gusts: NA
Location:  40.34°N, 97.57°W
Report Text: KHJH 260735Z AUTO 12005KT 10SM CLR 14/08 A2989 RMK AO2 T01370080
Loading
Personal Weather Stations






























Interactive Weather Map
Tropical Storm Tracking
New forecast layout! Learn more

10-Day Weather Forecast

Advertisements
Track Severe Weather on mobile